createdAt,value
2018-05-09T00:01:01.576Z,94128.11
2018-05-09T00:04:04.921Z,94129.52
2018-05-09T00:07:08.183Z,94119.75
2018-05-09T00:10:11.450Z,94113.31
2018-05-09T00:13:15.585Z,94116.28
2018-05-09T00:16:18.846Z,94116.53
2018-05-09T00:19:22.093Z,94118.48
2018-05-09T00:22:25.378Z,94113.67
2018-05-09T00:25:28.638Z,94107.05
2018-05-09T00:28:32.658Z,94116.70
2018-05-09T00:31:36.683Z,94109.11
2018-05-09T00:34:40.798Z,94118.77
2018-05-09T00:37:44.810Z,94118.38
2018-05-09T00:40:48.259Z,94117.72
2018-05-09T00:43:51.548Z,94122.23
2018-05-09T00:46:54.797Z,94124.30
2018-05-09T00:49:58.055Z,94117.70
2018-05-09T00:53:01.350Z,94121.48
2018-05-09T00:56:06.571Z,94106.22
2018-05-09T00:59:09.825Z,94111.19
2018-05-09T01:02:13.084Z,94122.34
2018-05-09T01:05:16.362Z,94124.27
2018-05-09T01:08:19.620Z,94116.51
2018-05-09T01:11:24.380Z,94115.45
2018-05-09T01:14:27.671Z,94116.94
2018-05-09T01:17:31.702Z,94117.41
2018-05-09T01:20:34.953Z,94116.53
2018-05-09T01:23:38.205Z,94119.52
2018-05-09T01:26:42.227Z,94119.85
2018-05-09T01:29:45.526Z,94117.59
2018-05-09T01:32:48.769Z,94128.05
2018-05-09T01:35:52.034Z,94136.02
2018-05-09T01:38:55.283Z,94133.19
2018-05-09T01:41:58.554Z,94126.51
2018-05-09T01:45:01.807Z,94125.66
2018-05-09T01:48:05.134Z,94122.94
2018-05-09T01:51:08.402Z,94119.52
2018-05-09T01:54:11.687Z,94111.44
2018-05-09T01:57:15.712Z,94112.59
2018-05-09T02:00:18.964Z,94108.39
2018-05-09T02:03:22.225Z,94107.45
2018-05-09T02:06:25.483Z,94112.11
2018-05-09T02:09:29.513Z,94112.59
2018-05-09T02:12:32.753Z,94110.50
2018-05-09T02:15:36.172Z,94103.66
2018-05-09T02:18:39.403Z,94098.12
2018-05-09T02:21:42.657Z,94103.00
2018-05-09T02:24:45.912Z,94095.03
2018-05-09T02:27:49.203Z,94087.41
2018-05-09T02:30:52.482Z,94095.62
2018-05-09T02:33:56.714Z,94089.76
2018-05-09T02:37:00.740Z,94090.98
2018-05-09T02:40:03.996Z,94089.50
2018-05-09T02:43:07.307Z,94091.77
2018-05-09T02:46:11.323Z,94093.48
2018-05-09T02:49:15.344Z,94093.86
2018-05-09T02:52:19.378Z,94088.40
2018-05-09T02:55:22.630Z,94085.27
2018-05-09T02:58:25.880Z,94086.35
2018-05-09T03:01:29.150Z,94090.44
2018-05-09T03:04:32.681Z,94088.73
2018-05-09T03:07:35.929Z,94087.34
2018-05-09T03:10:39.949Z,94090.97
2018-05-09T03:13:43.981Z,94088.80
2018-05-09T03:16:47.236Z,94092.33
2018-05-09T03:19:50.486Z,94093.83
2018-05-09T03:22:53.746Z,94091.99
2018-05-09T03:25:56.993Z,94090.39
2018-05-09T03:29:00.249Z,94093.91
2018-05-09T03:32:04.306Z,94087.21
2018-05-09T03:35:07.554Z,94089.75
2018-05-09T03:38:10.800Z,94099.31
2018-05-09T03:41:14.169Z,94098.91
2018-05-09T03:44:18.173Z,94099.40
2018-05-09T03:47:22.213Z,94102.34
2018-05-09T03:50:26.233Z,94101.64
2018-05-09T03:53:30.255Z,94098.28
2018-05-09T03:56:33.649Z,94103.27
2018-05-09T03:59:37.666Z,94099.91
2018-05-09T04:02:59.439Z,94093.09
2018-05-09T04:06:20.435Z,94094.50
2018-05-09T04:09:45.030Z,94094.14
2018-05-09T04:12:48.281Z,94092.73
2018-05-09T04:15:51.540Z,94094.44
2018-05-09T04:18:55.437Z,94093.06
2018-05-09T04:21:59.490Z,94100.05
2018-05-09T04:25:31.349Z,94104.55
2018-05-09T04:28:40.008Z,94106.19
2018-05-09T04:31:45.100Z,94104.65
2018-05-09T04:34:49.211Z,94103.05
2018-05-09T04:37:53.243Z,94105.98
2018-05-09T04:40:57.346Z,94105.20
2018-05-09T04:44:01.394Z,94109.81
2018-05-09T04:47:04.698Z,94109.00
2018-05-09T04:50:08.218Z,94109.63
2018-05-09T04:53:11.471Z,94109.01
2018-05-09T04:56:18.247Z,94113.62
2018-05-09T04:59:21.506Z,94115.67
2018-05-09T05:02:24.771Z,94111.75
2018-05-09T05:05:28.918Z,94104.42
2018-05-09T05:08:32.186Z,94102.16
2018-05-09T05:11:35.500Z,94099.58
2018-05-09T05:14:39.607Z,94099.79
2018-05-09T05:17:42.906Z,94092.31
2018-05-09T05:20:46.934Z,94097.46
2018-05-09T05:23:50.954Z,94087.03
2018-05-09T05:26:55.022Z,94079.24
2018-05-09T05:29:58.292Z,94084.08
2018-05-09T05:33:02.517Z,94081.88
2018-05-09T05:36:05.783Z,94083.86
2018-05-09T05:39:09.146Z,94094.87
2018-05-09T05:42:12.524Z,94091.36
2018-05-09T05:45:15.930Z,94097.83
2018-05-09T05:48:19.113Z,94096.36
2018-05-09T05:51:22.369Z,94100.63
2018-05-09T05:54:25.616Z,94105.47
2018-05-09T05:57:28.899Z,94096.22
2018-05-09T06:00:32.161Z,94104.41
2018-05-09T06:03:35.432Z,94093.84
2018-05-09T06:06:38.718Z,94100.75
2018-05-09T06:09:41.985Z,94102.03
2018-05-09T06:12:45.243Z,94116.61
2018-05-09T06:15:48.496Z,94117.82
2018-05-09T06:18:52.518Z,94119.01
2018-05-09T06:21:56.561Z,94117.37
2018-05-09T06:24:59.821Z,94117.72
2018-05-09T06:28:03.519Z,94115.88
2018-05-09T06:31:06.781Z,94116.03
2018-05-09T06:34:10.050Z,94115.65
2018-05-09T06:37:13.363Z,94112.38
2018-05-09T06:40:16.610Z,94118.98
2018-05-09T06:43:19.935Z,94121.77
2018-05-09T06:46:23.200Z,94125.98
2018-05-09T06:49:26.452Z,94123.47
2018-05-09T06:52:29.738Z,94117.87
2018-05-09T06:55:33.030Z,94119.33
2018-05-09T06:58:36.341Z,94124.03
2018-05-09T07:01:39.618Z,94121.52
2018-05-09T07:04:42.900Z,94129.45
2018-05-09T07:07:46.931Z,94132.53
2018-05-09T07:10:50.989Z,94130.38
2018-05-09T07:13:54.261Z,94132.05
2018-05-09T07:16:57.822Z,94127.95
2018-05-09T07:20:01.070Z,94125.25
2018-05-09T07:23:04.412Z,94128.78
2018-05-09T07:26:07.652Z,94127.06
2018-05-09T07:29:11.941Z,94122.60
2018-05-09T07:32:15.213Z,94132.45
2018-05-09T07:35:18.483Z,94136.08
2018-05-09T07:38:22.604Z,94139.06
2018-05-09T07:41:26.621Z,94132.84
2018-05-09T07:44:29.972Z,94126.77
2018-05-09T07:47:33.323Z,94132.67
2018-05-09T07:50:36.600Z,94129.05
2018-05-09T07:53:40.622Z,94135.84
2018-05-09T07:56:44.783Z,94134.72
2018-05-09T07:59:48.100Z,94128.42
2018-05-09T08:02:51.383Z,94131.93
2018-05-09T08:05:54.725Z,94132.25
2018-05-09T08:08:57.954Z,94130.55
2018-05-09T08:12:01.218Z,94128.67
2018-05-09T08:15:04.610Z,94125.23
2018-05-09T08:18:07.908Z,94116.42
2018-05-09T08:21:11.200Z,94114.12
2018-05-09T08:24:14.516Z,94114.81
2018-05-09T08:27:17.816Z,94118.77
2018-05-09T08:30:21.095Z,94116.93
2018-05-09T08:33:24.436Z,94116.06
2018-05-09T08:36:28.453Z,94110.20
2018-05-09T08:39:31.714Z,94110.77
2018-05-09T08:42:34.973Z,94113.02
2018-05-09T08:45:38.223Z,94114.63
2018-05-09T08:48:41.489Z,94111.13
2018-05-09T08:51:44.749Z,94111.14
2018-05-09T08:54:48.779Z,94112.98
2018-05-09T08:57:52.803Z,94116.97
2018-05-09T09:00:56.810Z,94113.86
2018-05-09T09:04:00.076Z,94121.25
2018-05-09T09:07:03.415Z,94120.70
2018-05-09T09:10:07.435Z,94128.75
2018-05-09T09:13:11.553Z,94119.05
2018-05-09T09:16:15.575Z,94115.81
2018-05-09T09:19:19.594Z,94122.76
2018-05-09T09:22:22.850Z,94122.93
2018-05-09T09:25:26.184Z,94118.85
2018-05-09T09:28:30.232Z,94117.11
2018-05-09T09:31:33.497Z,94113.64
2018-05-09T09:34:37.515Z,94112.94
2018-05-09T09:37:41.633Z,94111.69
2018-05-09T09:40:45.763Z,94108.29
2018-05-09T09:43:49.026Z,94110.64
2018-05-09T09:46:52.418Z,94101.03
2018-05-09T09:49:55.835Z,94107.34
2018-05-09T09:52:59.102Z,94103.63
2018-05-09T09:56:02.382Z,94104.53
2018-05-09T09:59:05.641Z,94102.78
2018-05-09T10:02:09.981Z,94096.85
2018-05-09T10:05:13.290Z,94106.31
2018-05-09T10:08:16.679Z,94098.02
2018-05-09T10:11:19.942Z,94099.90
2018-05-09T10:14:24.006Z,94092.44
2018-05-09T10:17:27.261Z,94096.06
2018-05-09T10:20:30.526Z,94098.38
2018-05-09T10:23:34.722Z,94095.77
2018-05-09T10:26:38.146Z,94091.41
2018-05-09T10:29:41.427Z,94083.48
2018-05-09T10:32:44.713Z,94095.54
2018-05-09T10:35:47.966Z,94091.72
2018-05-09T10:38:51.232Z,94093.48
2018-05-09T10:41:54.557Z,94096.06
2018-05-09T10:44:57.840Z,94091.83
2018-05-09T10:48:01.167Z,94086.06
2018-05-09T10:51:04.412Z,94085.17
2018-05-09T10:54:07.795Z,94088.17
2018-05-09T10:57:11.839Z,94080.25
2018-05-09T11:00:15.114Z,94086.27
2018-05-09T11:03:18.383Z,94090.07
2018-05-09T11:06:22.444Z,94079.21
2018-05-09T11:09:25.701Z,94074.36
2018-05-09T11:12:29.032Z,94073.78
2018-05-09T11:15:33.061Z,94077.23
2018-05-09T11:21:39.806Z,94073.73
2018-05-09T11:24:43.137Z,94071.86
2018-05-09T11:27:48.248Z,94074.80
2018-05-09T11:30:51.550Z,94072.91
2018-05-09T11:33:54.851Z,94076.92
2018-05-09T11:36:58.125Z,94070.45
2018-05-09T11:40:01.634Z,94069.48
2018-05-09T11:43:04.928Z,94065.97
2018-05-09T11:46:08.205Z,94064.59
2018-05-09T11:49:11.604Z,94064.36
2018-05-09T11:52:14.853Z,94062.77
2018-05-09T11:55:18.216Z,94061.84
2018-05-09T11:58:21.515Z,94062.63
2018-05-09T12:01:24.825Z,94052.58
2018-05-09T12:04:28.108Z,94060.53
2018-05-09T12:07:31.390Z,94052.16
2018-05-09T12:10:35.541Z,94045.77
2018-05-09T12:13:38.700Z,94035.95
2018-05-09T12:16:45.314Z,94042.88
2018-05-09T12:19:49.244Z,94046.09
2018-05-09T12:22:52.514Z,94046.76
2018-05-09T12:25:55.823Z,94048.70
2018-05-09T12:28:59.117Z,94041.37
2018-05-09T12:32:02.381Z,94046.25
2018-05-09T12:35:06.511Z,94035.70
2018-05-09T12:38:09.785Z,94026.22
2018-05-09T12:41:13.838Z,94025.66
2018-05-09T12:44:17.240Z,94033.27
2018-05-09T12:47:20.506Z,94020.13
2018-05-09T12:50:24.666Z,94031.30
2018-05-09T12:53:28.254Z,94034.86
2018-05-09T12:56:31.532Z,94036.39
2018-05-09T12:59:35.579Z,94032.21
2018-05-09T13:02:38.859Z,94028.41
2018-05-09T13:05:42.142Z,94031.71
2018-05-09T13:08:46.194Z,94025.01
2018-05-09T13:11:49.590Z,94031.23
2018-05-09T13:14:52.901Z,94021.56
2018-05-09T13:17:56.171Z,94024.80
2018-05-09T13:21:00.224Z,94024.35
2018-05-09T13:24:04.723Z,94036.70
2018-05-09T13:27:08.240Z,94042.80
2018-05-09T13:30:11.550Z,94019.13
2018-05-09T13:33:14.814Z,94029.14
2018-05-09T13:36:18.876Z,94033.39
2018-05-09T13:39:22.130Z,94034.84
2018-05-09T13:42:26.460Z,94034.80
2018-05-09T13:45:30.482Z,94043.98
2018-05-09T13:48:35.894Z,94044.57
2018-05-09T13:51:40.118Z,94040.02
2018-05-09T13:54:46.326Z,94039.09
2018-05-09T13:57:49.658Z,94029.72
2018-05-09T14:00:52.915Z,94028.33
2018-05-09T14:03:56.198Z,94036.08
2018-05-09T14:07:00.222Z,94029.80
2018-05-09T14:10:04.319Z,94037.06
2018-05-09T14:13:07.581Z,94024.75
2018-05-09T14:16:11.165Z,94017.84
2018-05-09T14:19:14.552Z,94005.00
2018-05-09T14:22:18.568Z,94001.98
2018-05-09T14:25:21.830Z,94006.42
2018-05-09T14:28:25.079Z,94009.45
2018-05-09T14:31:28.394Z,94008.88
2018-05-09T14:34:31.654Z,94011.05
2018-05-09T14:37:34.934Z,94009.39
2018-05-09T14:40:39.094Z,94005.94
2018-05-09T14:43:42.234Z,94004.09
2018-05-09T14:46:45.547Z,94009.58
2018-05-09T14:49:48.834Z,94001.59
2018-05-09T14:52:53.039Z,93998.23
2018-05-09T14:55:56.299Z,93999.00
2018-05-09T14:59:00.884Z,94002.08
2018-05-09T15:02:04.965Z,93996.66
2018-05-09T15:05:12.552Z,93998.82
2018-05-09T15:08:16.094Z,93999.35
2018-05-09T15:11:19.440Z,93995.52
2018-05-09T15:14:23.457Z,93995.54
2018-05-09T15:17:26.874Z,93988.85
2018-05-09T15:20:31.461Z,93989.18
2018-05-09T15:23:44.064Z,93989.79
2018-05-09T15:26:51.206Z,93987.58
2018-05-09T15:29:54.562Z,93988.05
2018-05-09T15:32:57.833Z,93986.00
2018-05-09T15:36:01.107Z,93988.02
2018-05-09T15:39:05.184Z,93989.03
2018-05-09T15:42:08.450Z,93988.77
2018-05-09T15:45:11.845Z,93990.13
2018-05-09T15:48:15.130Z,93985.61
2018-05-09T15:51:18.478Z,93987.20
2018-05-09T15:54:22.047Z,93987.73
2018-05-09T15:57:26.071Z,93985.06
2018-05-09T16:00:30.325Z,93974.23
2018-05-09T16:03:33.793Z,93975.83
2018-05-09T16:06:37.836Z,93974.50
2018-05-09T16:09:44.450Z,93971.44
2018-05-09T16:12:47.903Z,93968.35
2018-05-09T16:15:51.186Z,93971.48
2018-05-09T16:18:55.283Z,93969.02
2018-05-09T16:22:01.497Z,93972.24
2018-05-09T16:25:04.822Z,93974.34
2018-05-09T16:28:08.699Z,93964.23
2018-05-09T16:31:12.040Z,93974.48
2018-05-09T16:34:15.313Z,93975.03
2018-05-09T16:37:18.580Z,93966.67
2018-05-09T16:40:22.675Z,93969.92
2018-05-09T16:43:26.186Z,93967.81
2018-05-09T16:46:30.256Z,93965.54
2018-05-09T16:49:33.506Z,93961.91
2018-05-09T16:52:36.816Z,93959.73
2018-05-09T16:55:40.070Z,93956.13
2018-05-09T16:58:43.412Z,93962.51
2018-05-09T17:01:46.718Z,93962.80
2018-05-09T17:04:49.994Z,93959.46
2018-05-09T17:07:54.021Z,93968.69
2018-05-09T17:10:58.045Z,93967.30
2018-05-09T17:14:01.302Z,93968.23
2018-05-09T17:17:04.566Z,93969.55
2018-05-09T17:20:07.823Z,93971.69
2018-05-09T17:23:11.089Z,93973.37
2018-05-09T17:26:14.364Z,93978.60
2018-05-09T17:29:17.680Z,93988.52
2018-05-09T17:32:20.944Z,93989.88
2018-05-09T17:35:24.983Z,93986.82
2018-05-09T17:38:28.267Z,93990.65
2018-05-09T17:41:32.281Z,93992.42
2018-05-09T17:44:36.299Z,93995.56
2018-05-09T17:47:40.325Z,94002.69
2018-05-09T17:50:43.606Z,94006.20
2018-05-09T17:53:46.914Z,94013.60
2018-05-09T17:56:50.198Z,94020.33
2018-05-09T17:59:54.209Z,94022.41
2018-05-09T18:02:58.236Z,94021.35
2018-05-09T18:06:02.260Z,94014.34
2018-05-09T18:09:06.252Z,94018.03
2018-05-09T18:12:09.551Z,94013.77
2018-05-09T18:15:13.598Z,94014.58
2018-05-09T18:18:16.905Z,94019.95
2018-05-09T18:21:20.173Z,94018.23
2018-05-09T18:24:23.429Z,94014.86
2018-05-09T18:27:27.445Z,94012.98
2018-05-09T18:30:30.745Z,94018.22
2018-05-09T18:33:34.839Z,94017.78
2018-05-09T18:36:38.078Z,94020.57
2018-05-09T18:39:41.330Z,94019.16
2018-05-09T18:42:44.598Z,94022.23
2018-05-09T18:45:47.853Z,94019.56
2018-05-09T18:48:51.866Z,94026.83
2018-05-09T18:51:55.889Z,94031.45
2018-05-09T18:54:59.930Z,94031.70
2018-05-09T18:58:03.183Z,94038.95
2018-05-09T19:01:06.445Z,94044.31
2018-05-09T19:04:09.723Z,94036.48
2018-05-09T19:07:12.991Z,94039.38
2018-05-09T19:10:16.246Z,94047.02
2018-05-09T19:13:19.558Z,94042.23
2018-05-09T19:16:22.969Z,94044.91
2018-05-09T19:19:26.244Z,94047.78
2018-05-09T19:22:30.286Z,94052.18
2018-05-09T19:25:33.545Z,94056.77
2018-05-09T19:28:37.133Z,94052.92
2018-05-09T19:31:40.363Z,94060.73
2018-05-09T19:34:44.491Z,94060.30
2018-05-09T19:37:48.516Z,94064.13
2018-05-09T19:40:51.993Z,94060.47
2018-05-09T19:43:55.314Z,94065.77
2018-05-09T19:46:58.609Z,94071.86
2018-05-09T19:50:02.884Z,94071.47
2018-05-09T19:53:06.157Z,94067.05
2018-05-09T19:56:09.465Z,94072.01
2018-05-09T19:59:13.747Z,94070.81
2018-05-09T20:02:17.783Z,94072.69
2018-05-09T20:05:21.056Z,94073.00
2018-05-09T20:08:25.075Z,94073.75
2018-05-09T20:11:29.166Z,94075.38
2018-05-09T20:14:32.430Z,94073.95
2018-05-09T20:17:35.689Z,94070.72
2018-05-09T20:20:39.734Z,94076.40
2018-05-09T20:23:43.065Z,94073.09
2018-05-09T20:26:46.292Z,94072.87
2018-05-09T20:29:50.307Z,94067.14
2018-05-09T20:32:54.339Z,94066.91
2018-05-09T20:35:57.645Z,94067.81
2018-05-09T20:39:01.683Z,94063.02
2018-05-09T20:42:05.798Z,94061.44
2018-05-09T20:45:09.814Z,94070.98
2018-05-09T20:48:13.206Z,94067.33
2018-05-09T20:51:17.305Z,94072.67
2018-05-09T20:54:20.568Z,94070.73
2018-05-09T20:57:23.826Z,94066.70
2018-05-09T21:00:27.076Z,94062.30
2018-05-09T21:03:30.457Z,94064.09
2018-05-09T21:06:34.507Z,94068.50
2018-05-09T21:09:38.588Z,94064.23
2018-05-09T21:12:41.839Z,94071.02
2018-05-09T21:15:45.085Z,94065.87
2018-05-09T21:18:48.344Z,94065.80
2018-05-09T21:21:51.600Z,94067.45
2018-05-09T21:24:56.396Z,94068.97
2018-05-09T21:27:59.727Z,94074.17
2018-05-09T21:31:03.193Z,94074.20
2018-05-09T21:34:06.562Z,94071.73
2018-05-09T21:40:20.572Z,94080.88
2018-05-09T21:43:24.622Z,94082.06
2018-05-09T21:46:27.902Z,94083.98
2018-05-09T21:49:31.219Z,94082.86
2018-05-09T21:52:34.711Z,94087.27
2018-05-09T21:55:38.797Z,94083.02
2018-05-09T21:58:42.836Z,94085.02
2018-05-09T22:01:56.246Z,94080.70
2018-05-09T22:04:59.677Z,94086.22
2018-05-09T22:08:03.302Z,94084.89
2018-05-09T22:11:06.563Z,94082.76
2018-05-09T22:14:09.866Z,94085.87
2018-05-09T22:17:13.113Z,94085.16
2018-05-09T22:20:16.371Z,94092.52
2018-05-09T22:23:19.727Z,94098.12
2018-05-09T22:26:23.070Z,94094.78
2018-05-09T22:29:26.396Z,94093.18
2018-05-09T22:32:30.430Z,94086.81
2018-05-09T22:35:33.693Z,94098.78
2018-05-09T22:38:37.839Z,94096.33
2018-05-09T22:41:41.085Z,94092.81
2018-05-09T22:44:44.338Z,94087.28
2018-05-09T22:47:56.975Z,94093.55
2018-05-09T22:51:22.928Z,94095.09
2018-05-09T22:54:27.406Z,94092.81
2018-05-09T22:57:30.681Z,94086.17
2018-05-09T23:00:33.936Z,94091.94
2018-05-09T23:03:37.206Z,94093.37
2018-05-09T23:06:40.455Z,94091.17
2018-05-09T23:09:43.781Z,94086.95
2018-05-09T23:12:47.811Z,94084.26
2018-05-09T23:15:51.060Z,94080.30
2018-05-09T23:18:54.317Z,94081.05
2018-05-09T23:21:57.599Z,94081.14
2018-05-09T23:25:01.619Z,94078.48
2018-05-09T23:28:05.663Z,94086.75
2018-05-09T23:31:08.951Z,94080.90
2018-05-09T23:34:12.209Z,94078.05
2018-05-09T23:37:15.463Z,94074.72
2018-05-09T23:40:18.716Z,94075.67
2018-05-09T23:43:21.974Z,94074.54
2018-05-09T23:46:25.234Z,94073.68
2018-05-09T23:49:29.244Z,94074.16
2018-05-09T23:52:32.529Z,94073.82
2018-05-09T23:55:35.833Z,94067.73
2018-05-09T23:58:39.173Z,94069.53
